Time;durP1;ratioP1;P1;durP2;ratioP2;P2;SDS_P1;SDS_P2;PMS_P1;PMS_P2;Temp;Humidity;BMP_temperature;BMP_pressure;BME280_temperature;BME280_humidity;BME280_pressure;Samples;Min_cycle;Max_cycle;Signal;HPM_P1;HPM_P2
2022/02/12 00:00:38;;;;;;;14.13;8.32;;;;;;;1.51;77.66;101649.75;1087704;54;20026;-83
2022/02/12 00:01:40;;;;;;;14.40;7.63;;;;;;;1.49;77.59;101644.50;1087822;54;20113;-82
2022/02/12 00:02:44;;;;;;;16.58;8.73;;;;;;;1.48;77.57;101644.56;1087728;54;20030;-82
2022/02/12 00:03:48;;;;;;;16.05;9.07;;;;;;;1.38;77.75;101642.22;1087698;54;20050;-82
2022/02/12 00:04:50;;;;;;;17.20;9.38;;;;;;;1.34;78.01;101645.81;1087997;54;20043;-82
2022/02/12 00:05:54;;;;;;;16.15;10.32;;;;;;;1.35;77.92;101642.28;1087883;54;20034;-81
2022/02/12 00:06:58;;;;;;;16.10;9.05;;;;;;;1.36;78.08;101636.09;1087829;54;20049;-83
2022/02/12 00:08:03;;;;;;;15.65;9.57;;;;;;;1.37;77.79;101635.22;1087757;54;20034;-84
2022/02/12 00:09:07;;;;;;;14.05;8.38;;;;;;;1.38;77.87;101631.66;1087906;54;20094;-81
2022/02/12 00:10:09;;;;;;;15.35;8.70;;;;;;;1.34;77.88;101632.66;1087675;54;20651;-83
2022/02/12 00:11:13;;;;;;;15.20;9.13;;;;;;;1.35;77.77;101634.38;1093431;39;20504;-82
2022/02/12 00:12:15;;;;;;;19.30;10.57;;;;;;;1.34;77.80;101637.06;1087665;54;20050;-83
2022/02/12 00:13:19;;;;;;;19.02;10.25;;;;;;;1.33;77.92;101636.19;1087771;54;20034;-81
2022/02/12 00:14:21;;;;;;;17.95;9.48;;;;;;;1.35;77.85;101639.66;1087667;54;20612;-82
2022/02/12 00:15:28;;;;;;;17.13;10.32;;;;;;;1.30;77.94;101641.56;1087569;54;20034;-81
2022/02/12 00:16:29;;;;;;;18.15;9.52;;;;;;;1.32;77.91;101637.13;1087788;54;20047;-82
2022/02/12 00:17:33;;;;;;;18.17;9.93;;;;;;;1.32;77.77;101631.84;1087713;54;20057;-82
2022/02/12 00:18:38;;;;;;;14.38;9.98;;;;;;;1.32;77.64;101634.50;1087485;54;20034;-81
2022/02/12 00:19:39;;;;;;;15.35;9.45;;;;;;;1.27;77.97;101623.22;1087788;54;20039;-82
2022/02/12 00:20:43;;;;;;;22.42;11.32;;;;;;;1.19;78.10;101617.31;1087587;54;20065;-83
2022/02/12 00:21:45;;;;;;;19.35;11.38;;;;;;;1.20;78.24;101626.94;1087699;54;20058;-83
2022/02/12 00:22:49;;;;;;;17.38;10.43;;;;;;;1.14;78.40;101624.47;1087720;54;20042;-81
2022/02/12 00:23:53;;;;;;;18.77;11.30;;;;;;;1.13;78.36;101628.91;1087583;54;20058;-82
2022/02/12 00:24:55;;;;;;;20.02;11.93;;;;;;;1.11;78.67;101622.81;1087684;54;20019;-81
2022/02/12 00:25:59;;;;;;;21.40;12.52;;;;;;;1.10;78.57;101626.34;1087902;54;20086;-81
2022/02/12 00:27:01;;;;;;;17.00;10.48;;;;;;;1.15;78.55;101623.56;1087618;54;20631;-80
2022/02/12 00:28:05;;;;;;;16.52;10.07;;;;;;;1.16;78.50;101620.03;1087648;54;20617;-83
2022/02/12 00:29:07;;;;;;;19.13;11.07;;;;;;;1.14;78.31;101625.34;1087818;54;20560;-79
2022/02/12 00:30:13;;;;;;;16.20;9.77;;;;;;;1.16;78.32;101625.31;1087570;54;20035;-80
2022/02/12 00:31:17;;;;;;;14.82;9.68;;;;;;;1.17;78.25;101629.66;1087775;54;20042;-82
2022/02/12 00:32:21;;;;;;;16.77;9.88;;;;;;;1.19;78.19;101617.31;1087898;54;20628;-81
2022/02/12 00:33:23;;;;;;;14.73;9.23;;;;;;;1.22;77.90;101617.22;1087863;54;20034;-81
2022/02/12 00:34:27;;;;;;;20.75;10.93;;;;;;;1.17;78.13;101616.50;1087828;54;20027;-81
2022/02/12 00:35:28;;;;;;;17.27;10.43;;;;;;;1.15;78.22;101616.56;1087982;54;20663;-82
2022/02/12 00:36:33;;;;;;;16.55;10.63;;;;;;;1.16;78.25;101615.63;1088088;54;20094;-81
2022/02/12 00:37:34;;;;;;;17.27;10.93;;;;;;;1.13;78.25;101609.59;1089474;47;20733;-81
2022/02/12 00:38:39;;;;;;;19.20;10.57;;;;;;;1.09;78.25;101620.22;1088204;54;20019;-82
2022/02/12 00:39:43;;;;;;;19.40;11.05;;;;;;;1.05;78.39;101618.56;1088238;54;20042;-82
2022/02/12 00:40:47;;;;;;;16.60;9.63;;;;;;;1.00;78.50;101612.59;1092185;46;20034;-81
2022/02/12 00:41:49;;;;;;;17.15;10.50;;;;;;;1.02;78.23;101613.41;1088102;54;20034;-84
2022/02/12 00:42:53;;;;;;;16.50;10.25;;;;;;;1.03;78.41;101615.16;1087954;54;20053;-81
2022/02/12 00:43:55;;;;;;;17.75;9.10;;;;;;;1.02;78.25;101615.16;1087901;54;20030;-80
2022/02/12 00:45:00;;;;;;;14.10;10.15;;;;;;;1.03;78.32;101609.88;1087736;54;20042;-81
2022/02/12 00:46:04;;;;;;;13.93;8.85;;;;;;;1.04;78.03;101616.84;1087715;54;20584;-83
2022/02/12 00:47:09;;;;;;;15.65;9.23;;;;;;;1.02;78.06;101610.78;1087712;54;20049;-83
2022/02/12 00:48:13;;;;;;;16.85;10.13;;;;;;;0.99;78.08;101617.91;1087664;54;20039;-81
2022/02/12 00:49:15;;;;;;;16.75;10.63;;;;;;;0.91;78.13;101615.50;1087693;54;20038;-82
2022/02/12 00:50:19;;;;;;;17.40;10.70;;;;;;;0.86;78.15;101620.88;1088108;39;20538;-81
2022/02/12 00:51:20;;;;;;;16.17;10.52;;;;;;;0.84;78.35;101616.59;1087725;54;20035;-82
2022/02/12 00:52:25;;;;;;;18.15;10.45;;;;;;;0.76;78.23;101620.28;1087607;54;20035;-81
2022/02/12 00:53:27;;;;;;;19.52;11.45;;;;;;;0.73;78.53;101624.75;1087685;54;20035;-82
2022/02/12 00:54:32;;;;;;;19.15;11.52;;;;;;;0.71;78.60;101621.34;1087662;54;20019;-80
2022/02/12 00:55:36;;;;;;;19.55;12.02;;;;;;;0.57;78.59;101619.06;1087611;54;20034;-82
2022/02/12 00:56:37;;;;;;;16.60;11.30;;;;;;;0.60;78.44;101625.13;1087653;47;20039;-79
2022/02/12 00:57:41;;;;;;;16.38;10.55;;;;;;;0.59;78.61;101626.03;1087718;54;20023;-83
2022/02/12 00:58:43;;;;;;;17.52;10.73;;;;;;;0.58;78.55;101621.66;1087695;54;20041;-83
2022/02/12 00:59:48;;;;;;;18.30;10.55;;;;;;;0.56;78.54;101617.34;1087589;54;20043;-81
2022/02/12 01:00:50;;;;;;;26.38;13.50;;;;;;;0.37;78.84;101624.88;1087776;54;20046;-85
2022/02/12 01:01:54;;;;;;;31.58;12.73;;;;;;;0.26;79.19;101620.75;1087683;54;20662;-81
2022/02/12 01:02:58;;;;;;;29.88;14.88;;;;;;;0.10;79.59;101619.41;1094500;39;20527;-82
2022/02/12 01:04:02;;;;;;;22.77;14.43;;;;;;;0.03;79.78;101615.22;1087938;54;20041;-81
2022/02/12 01:05:07;;;;;;;19.80;11.65;;;;;;;0.01;80.07;101615.25;1087855;54;20054;-82
2022/02/12 01:06:09;;;;;;;20.40;12.65;;;;;;;-0.02;79.83;101617.97;1088509;39;20534;-82
2022/02/12 01:07:13;;;;;;;21.95;13.05;;;;;;;-0.05;80.18;101620.66;1088151;54;20041;-82
2022/02/12 01:08:15;;;;;;;25.75;13.13;;;;;;;-0.12;80.33;101616.47;1088013;54;20057;-80
2022/02/12 01:09:19;;;;;;;16.38;11.25;;;;;;;-0.11;80.18;101616.41;1088056;54;20098;-81
2022/02/12 01:10:21;;;;;;;21.10;12.88;;;;;;;-0.19;80.20;101616.59;1088103;54;20019;-82
2022/02/12 01:11:25;;;;;;;22.00;13.70;;;;;;;-0.23;80.71;101621.97;1093131;39;20830;-81
2022/02/12 01:12:27;;;;;;;17.20;12.27;;;;;;;-0.23;80.54;101622.84;1088435;39;20580;-81
2022/02/12 01:13:31;;;;;;;16.10;10.50;;;;;;;-0.18;80.61;101620.94;1087979;54;20037;-81
2022/02/12 01:14:33;;;;;;;17.77;11.13;;;;;;;-0.15;80.45;101620.03;1088081;54;20034;-81
2022/02/12 01:15:38;;;;;;;16.05;10.02;;;;;;;-0.17;80.18;101625.31;1088014;54;20025;-81
2022/02/12 01:16:40;;;;;;;19.10;10.95;;;;;;;-0.18;80.13;101620.94;1088050;54;20038;-81
2022/02/12 01:17:44;;;;;;;18.20;10.50;;;;;;;-0.18;80.18;101623.59;1092935;47;20019;-82
2022/02/12 01:18:48;;;;;;;20.40;10.50;;;;;;;-0.17;80.15;101627.94;1088146;54;20034;-82
2022/02/12 01:19:52;;;;;;;46.85;12.55;;;;;;;-0.31;80.17;101630.06;1088071;54;20034;-81
2022/02/12 01:20:54;;;;;;;15.57;10.02;;;;;;;-0.30;80.23;101626.53;1087688;54;20057;-81
2022/02/12 01:21:58;;;;;;;24.92;11.25;;;;;;;-0.29;80.28;101633.50;1087863;54;20125;-81
2022/02/12 01:23:00;;;;;;;27.23;11.95;;;;;;;-0.32;80.18;101637.06;1088230;54;20055;-83
2022/02/12 01:24:04;;;;;;;30.52;12.15;;;;;;;-0.40;80.46;101630.25;1088194;54;20061;-83
2022/02/12 01:25:08;;;;;;;25.02;12.10;;;;;;;-0.48;80.72;101626.06;1088197;54;20042;-84
2022/02/12 01:26:12;;;;;;;50.75;14.48;;;;;;;-0.60;80.96;101628.94;1088270;54;20086;-82
2022/02/12 01:27:17;;;;;;;71.72;15.45;;;;;;;-0.65;81.00;101629.06;1088186;54;20049;-81
2022/02/12 01:28:18;;;;;;;28.13;12.23;;;;;;;-0.68;81.22;101633.50;1087974;54;20053;-81
2022/02/12 01:29:23;;;;;;;19.88;11.50;;;;;;;-0.66;81.38;101626.47;1088162;54;20030;-82
2022/02/12 01:30:26;;;;;;;78.00;14.95;;;;;;;-0.72;81.26;101629.22;1088281;54;20038;-81
2022/02/12 01:31:30;;;;;;;28.35;11.75;;;;;;;-0.66;81.56;101632.56;1088185;54;20042;-81
2022/02/12 01:32:32;;;;;;;14.18;10.00;;;;;;;-0.62;81.17;101630.75;1088138;54;20022;-81
2022/02/12 01:33:36;;;;;;;22.45;10.75;;;;;;;-0.60;81.06;101625.44;1088070;54;20015;-81
2022/02/12 01:34:41;;;;;;;19.88;11.23;;;;;;;-0.59;81.14;101628.06;1088143;54;20030;-81
2022/02/12 01:35:45;;;;;;;36.08;14.18;;;;;;;-0.68;81.35;101621.22;1088092;54;20037;-81
2022/02/12 01:36:47;;;;;;;62.05;16.73;;;;;;;-0.77;81.72;101618.81;1087910;54;20034;-80
2022/02/12 01:37:52;;;;;;;99.35;16.27;;;;;;;-0.92;81.88;101627.03;1087895;54;20033;-82
2022/02/12 01:38:53;;;;;;;39.92;13.15;;;;;;;-0.96;82.35;101621.81;1088314;54;20265;-80
2022/02/12 01:39:57;;;;;;;85.85;15.90;;;;;;;-1.04;82.65;101622.91;1088275;54;20046;-81
2022/02/12 01:40:59;;;;;;;93.13;16.25;;;;;;;-1.08;82.90;101626.47;1088370;54;20031;-82
2022/02/12 01:42:04;;;;;;;60.05;14.80;;;;;;;-1.12;83.11;101616.03;1088310;54;20030;-81
2022/02/12 01:43:07;;;;;;;19.10;10.80;;;;;;;-1.00;82.99;101614.03;1088232;54;20019;-85
2022/02/12 01:44:13;;;;;;;33.25;12.50;;;;;;;-0.97;82.98;101622.72;1088289;54;20035;-82
2022/02/12 01:45:14;;;;;;;50.42;13.65;;;;;;;-0.99;82.91;101628.91;1088416;54;20042;-82
2022/02/12 01:46:19;;;;;;;39.42;12.88;;;;;;;-0.93;82.78;101631.41;1088334;54;20022;-82
2022/02/12 01:47:20;;;;;;;23.17;10.85;;;;;;;-0.90;82.72;101633.13;1088329;54;20049;-82
2022/02/12 01:48:25;;;;;;;22.75;10.88;;;;;;;-0.85;82.63;101632.09;1088231;54;20023;-80
2022/02/12 01:49:28;;;;;;;22.05;11.10;;;;;;;-0.80;82.47;101627.63;1088572;54;20022;-81
2022/02/12 01:50:35;;;;;;;14.95;9.45;;;;;;;-0.70;82.30;101616.91;1088671;54;20026;-83
2022/02/12 01:51:38;;;;;;;20.45;10.13;;;;;;;-0.67;82.04;101619.50;1088551;54;20027;-82
2022/02/12 01:52:43;;;;;;;26.05;9.57;;;;;;;-0.65;81.99;101629.06;1088292;54;20030;-83
2022/02/12 01:53:44;;;;;;;25.77;10.75;;;;;;;-0.64;81.95;101619.41;1088034;54;20058;-82
2022/02/12 01:54:48;;;;;;;46.45;12.27;;;;;;;-0.68;81.94;101623.84;1088232;54;20695;-82
2022/02/12 01:55:53;;;;;;;67.78;13.70;;;;;;;-0.73;81.73;101620.47;1088121;54;20045;-81
2022/02/12 01:56:56;;;;;;;15.20;9.18;;;;;;;-0.68;81.81;101615.13;1088157;54;20545;-81
2022/02/12 01:58:00;;;;;;;18.40;9.27;;;;;;;-0.64;81.84;101611.50;1087985;54;20718;-80
2022/02/12 01:59:01;;;;;;;13.65;9.48;;;;;;;-0.65;81.61;101612.41;1088077;54;20083;-80
2022/02/12 02:00:09;;;;;;;23.67;10.82;;;;;;;-0.75;82.24;101608.25;1087811;54;20093;-82
2022/02/12 02:01:10;;;;;;;37.80;12.80;;;;;;;-0.78;82.50;101611.81;1087989;54;20090;-82
2022/02/12 02:02:14;;;;;;;47.08;13.98;;;;;;;-0.88;82.51;101611.16;1087874;54;20138;-80
2022/02/12 02:03:16;;;;;;;32.20;13.52;;;;;;;-0.88;82.84;101613.78;1087912;54;20061;-82
2022/02/12 02:04:21;;;;;;;33.65;11.90;;;;;;;-0.83;82.67;101614.56;1092003;39;20543;-82
2022/02/12 02:05:23;;;;;;;23.65;11.23;;;;;;;-0.81;82.61;101619.78;1088081;54;20093;-81
2022/02/12 02:06:30;;;;;;;25.80;10.77;;;;;;;-0.77;82.39;101625.84;1088034;54;20034;-83
2022/02/12 02:07:32;;;;;;;25.92;10.30;;;;;;;-0.75;82.33;101624.00;1088138;54;20049;-81
2022/02/12 02:08:36;;;;;;;20.10;9.52;;;;;;;-0.73;82.20;101627.47;1087752;54;20082;-80
2022/02/12 02:09:37;;;;;;;23.50;10.35;;;;;;;-0.72;82.42;101623.97;1087889;54;20035;-80
2022/02/12 02:10:42;;;;;;;67.38;14.52;;;;;;;-0.80;82.74;101616.22;1088002;54;20603;-80
2022/02/12 02:11:43;;;;;;;82.97;15.30;;;;;;;-0.87;82.97;101622.53;1088065;54;20041;-81
2022/02/12 02:12:49;;;;;;;26.75;13.02;;;;;;;-0.92;83.01;101625.25;1088421;54;20037;-82
2022/02/12 02:13:51;;;;;;;18.05;10.82;;;;;;;-0.88;82.93;101616.44;1088314;54;20628;-82
2022/02/12 02:14:56;;;;;;;15.60;9.75;;;;;;;-0.84;82.67;101620.69;1088380;54;20031;-82
2022/02/12 02:15:57;;;;;;;20.00;10.55;;;;;;;-0.82;82.77;101618.91;1088292;54;20046;-82
2022/02/12 02:17:03;;;;;;;46.10;12.73;;;;;;;-0.81;82.79;101609.28;1089812;39;20582;-82
2022/02/12 02:18:05;;;;;;;20.05;9.40;;;;;;;-0.75;82.63;101616.13;1088260;54;20038;-83
2022/02/12 02:19:09;;;;;;;26.75;9.75;;;;;;;-0.76;82.43;101612.66;1088355;54;20018;-82
2022/02/12 02:20:11;;;;;;;27.45;10.18;;;;;;;-0.74;82.25;101612.63;1088337;54;20018;-83
2022/02/12 02:21:18;;;;;;;26.98;9.60;;;;;;;-0.69;82.29;101613.41;1088331;54;20030;-82
2022/02/12 02:22:28;;;;;;;28.10;10.07;;;;;;;-0.74;82.17;101608.25;1088296;54;20039;-83
2022/02/12 02:23:38;;;;;;;25.75;9.73;;;;;;;-0.74;82.26;101602.09;1088292;54;20034;-82
2022/02/12 02:24:39;;;;;;;12.48;8.23;;;;;;;-0.68;82.09;101599.38;1088293;54;20034;-82
2022/02/12 02:25:43;;;;;;;29.40;10.25;;;;;;;-0.72;82.26;101598.56;1088179;54;20616;-81
2022/02/12 02:26:45;;;;;;;53.47;11.25;;;;;;;-0.80;82.11;101601.38;1088225;54;20049;-81
2022/02/12 02:27:50;;;;;;;16.65;8.95;;;;;;;-0.76;82.05;101604.78;1088282;54;20022;-82
2022/02/12 02:28:51;;;;;;;21.85;10.10;;;;;;;-0.79;82.16;101596.97;1088204;54;20049;-82
2022/02/12 02:29:56;;;;;;;38.78;10.20;;;;;;;-0.80;81.94;101595.22;1088330;54;20077;-82
2022/02/12 02:30:57;;;;;;;23.83;9.75;;;;;;;-0.81;82.10;101593.53;1088326;54;20027;-81
2022/02/12 02:32:01;;;;;;;23.67;9.75;;;;;;;-0.84;81.96;101588.34;1088370;54;20053;-82
2022/02/12 02:33:03;;;;;;;53.80;12.60;;;;;;;-0.99;82.33;101592.16;1088172;54;20042;-82
2022/02/12 02:34:09;;;;;;;52.83;12.70;;;;;;;-1.03;82.78;101599.22;1088217;54;20018;-81
2022/02/12 02:35:13;;;;;;;37.38;12.75;;;;;;;-1.06;82.73;101593.19;1088401;54;20041;-82
2022/02/12 02:36:17;;;;;;;19.77;10.98;;;;;;;-1.03;82.76;101603.59;1088350;54;21030;-81
2022/02/12 02:37:20;;;;;;;21.80;11.27;;;;;;;-0.99;82.89;101593.00;1088282;54;20666;-82
2022/02/12 02:38:31;;;;;;;31.23;10.43;;;;;;;-0.98;82.83;101592.09;1088271;54;20041;-82
2022/02/12 02:39:36;;;;;;;14.18;8.23;;;;;;;-0.90;82.66;101586.69;1088318;54;20031;-81
2022/02/12 02:40:42;;;;;;;13.05;8.55;;;;;;;-0.86;82.67;101591.00;1088338;54;20038;-83
2022/02/12 02:41:44;;;;;;;35.92;11.73;;;;;;;-0.91;82.93;101592.84;1088138;54;20061;-82
2022/02/12 02:42:49;;;;;;;38.72;12.43;;;;;;;-0.93;82.73;101586.75;1087910;54;20041;-80
2022/02/12 02:43:50;;;;;;;40.28;13.35;;;;;;;-1.06;83.13;101587.94;1087888;54;20030;-81
2022/02/12 02:44:54;;;;;;;22.80;11.73;;;;;;;-1.06;83.33;101591.41;1088023;47;20410;-80
2022/02/12 02:45:56;;;;;;;16.92;10.15;;;;;;;-1.01;83.32;101586.06;1092045;39;20619;-81
2022/02/12 02:47:32;;;;;;;21.73;10.35;;;;;;;-0.95;83.17;101583.31;1087947;54;20030;-81
2022/02/12 02:48:21;;;;;;;21.48;9.98;;;;;;;-0.91;83.06;101587.59;1088071;47;20098;-81
2022/02/12 02:49:26;;;;;;;26.52;10.70;;;;;;;-0.91;83.04;101579.72;1087934;54;20034;-81
2022/02/12 02:56:02;;;;;;;13.70;8.38;;;;;;;-0.74;82.75;101588.97;1087738;54;20038;-82
2022/02/12 02:57:06;;;;;;;15.02;7.93;;;;;;;-0.70;82.63;101591.50;1088636;39;20608;-81
2022/02/12 02:58:08;;;;;;;11.23;7.53;;;;;;;-0.64;82.43;101585.25;1087220;54;20038;-81
2022/02/12 02:59:13;;;;;;;15.93;8.85;;;;;;;-0.60;82.37;101583.41;1087500;54;20041;-81
2022/02/12 03:00:16;;;;;;;36.88;9.60;;;;;;;-0.68;82.14;101579.19;1087540;54;20046;-81
2022/02/12 03:01:22;;;;;;;17.20;10.27;;;;;;;-0.69;82.47;101576.63;1087436;46;20612;-80
2022/02/12 03:02:24;;;;;;;23.77;10.30;;;;;;;-0.73;82.59;101581.09;1087770;54;20061;-83
2022/02/12 03:03:29;;;;;;;24.38;9.60;;;;;;;-0.72;82.49;101576.69;1090349;46;20043;-82
2022/02/12 03:04:31;;;;;;;13.25;8.30;;;;;;;-0.65;82.61;101580.88;1087736;54;20035;-81
2022/02/12 03:05:35;;;;;;;15.13;8.80;;;;;;;-0.63;82.53;101585.22;1087765;54;20030;-82
2022/02/12 03:06:39;;;;;;;20.38;10.00;;;;;;;-0.66;82.25;101582.66;1090722;39;20622;-83
2022/02/12 03:07:44;;;;;;;23.90;10.43;;;;;;;-0.70;82.45;101582.78;1087825;54;20062;-80
2022/02/12 03:08:48;;;;;;;30.98;9.85;;;;;;;-0.71;82.41;101578.41;1087684;54;20041;-80
2022/02/12 03:09:50;;;;;;;13.98;8.90;;;;;;;-0.68;82.23;101573.09;1087598;54;20116;-81
2022/02/12 03:10:57;;;;;;;20.30;9.57;;;;;;;-0.68;82.36;101580.97;1087647;54;20034;-80
2022/02/12 03:11:58;;;;;;;27.20;8.88;;;;;;;-0.65;82.38;101578.25;1087720;54;20923;-82
2022/02/12 03:13:03;;;;;;;27.20;10.18;;;;;;;-0.65;82.19;101579.16;1087705;54;20022;-82
2022/02/12 03:14:07;;;;;;;17.70;8.73;;;;;;;-0.63;82.23;101579.97;1087355;54;20031;-81
2022/02/12 03:15:09;;;;;;;14.75;7.90;;;;;;;-0.60;81.99;101576.41;1087365;54;20038;-81
2022/02/12 03:16:14;;;;;;;33.55;8.95;;;;;;;-0.61;82.01;101586.97;1087448;54;20679;-81
2022/02/12 03:17:15;;;;;;;43.20;11.10;;;;;;;-0.66;82.01;101587.06;1087615;54;20107;-82
2022/02/12 03:18:19;;;;;;;17.70;8.68;;;;;;;-0.64;82.14;101580.88;1087328;54;20058;-85
2022/02/12 03:19:24;;;;;;;14.50;8.27;;;;;;;-0.58;81.87;101586.88;1087412;54;20031;-81
2022/02/12 03:20:25;;;;;;;25.25;8.73;;;;;;;-0.61;81.98;101576.47;1087449;54;20030;-81
2022/02/12 03:21:29;;;;;;;24.00;9.77;;;;;;;-0.62;82.18;101578.19;1087434;54;20793;-82
2022/02/12 03:22:32;;;;;;;24.50;9.73;;;;;;;-0.69;82.45;101576.63;1087454;54;20039;-79
2022/02/12 03:23:37;;;;;;;20.50;9.88;;;;;;;-0.65;82.45;101578.25;1087693;54;20030;-82
2022/02/12 03:24:38;;;;;;;16.75;9.52;;;;;;;-0.67;82.73;101580.09;1087711;54;20695;-82
2022/02/12 03:25:42;;;;;;;32.33;11.57;;;;;;;-0.76;82.66;101575.03;1087720;54;20711;-81
2022/02/12 03:26:47;;;;;;;55.45;12.93;;;;;;;-0.89;82.84;101577.03;1087870;54;20033;-82
2022/02/12 03:27:54;;;;;;;50.40;12.52;;;;;;;-0.89;83.07;101580.56;1087588;54;20089;-82
2022/02/12 03:28:58;;;;;;;41.00;13.05;;;;;;;-0.98;83.04;101576.34;1087519;54;20650;-81
2022/02/12 03:30:00;;;;;;;69.70;13.38;;;;;;;-1.10;83.42;101567.00;1087378;54;20038;-83
2022/02/12 03:31:04;;;;;;;54.08;13.10;;;;;;;-1.07;83.56;101570.44;1087623;54;20038;-80
2022/02/12 03:32:09;;;;;;;31.80;12.02;;;;;;;-1.06;83.49;101561.69;1089087;39;20452;-81
2022/02/12 03:33:13;;;;;;;24.38;11.18;;;;;;;-0.99;83.60;101568.53;1087657;54;20034;-78
2022/02/12 03:34:16;;;;;;;19.83;11.10;;;;;;;-1.01;83.39;101559.81;1087742;54;20042;-82
2022/02/12 03:35:22;;;;;;;20.67;10.43;;;;;;;-0.95;83.16;101571.03;1088510;39;20310;-81
2022/02/12 03:36:26;;;;;;;53.75;12.70;;;;;;;-1.02;83.20;101563.31;1087231;54;20030;-80
2022/02/12 03:37:28;;;;;;;18.88;10.13;;;;;;;-1.00;83.33;101561.53;1087477;54;20042;-80
2022/02/12 03:38:35;;;;;;;15.55;9.52;;;;;;;-0.93;83.13;101567.53;1087465;54;20039;-81
2022/02/12 03:39:36;;;;;;;16.63;10.07;;;;;;;-0.89;83.19;101564.81;1087392;54;20030;-80
2022/02/12 03:40:42;;;;;;;25.75;10.38;;;;;;;-0.89;83.06;101569.16;1087264;54;20045;-79
2022/02/12 03:41:46;;;;;;;36.03;11.07;;;;;;;-0.89;82.82;101563.91;1087083;54;20065;-79
2022/02/12 03:42:51;;;;;;;42.42;11.85;;;;;;;-0.99;82.62;101565.91;1087225;54;20137;-80
2022/02/12 03:43:53;;;;;;;36.97;12.27;;;;;;;-1.05;83.09;101572.13;1088497;39;21018;-79
2022/02/12 03:44:57;;;;;;;23.98;9.93;;;;;;;-1.04;83.05;101568.63;1086948;54;20034;-80
2022/02/12 03:46:03;;;;;;;17.02;9.05;;;;;;;-0.99;83.18;101563.28;1087123;54;20101;-80
2022/02/12 03:47:05;;;;;;;15.25;8.85;;;;;;;-1.04;83.19;101565.16;1087271;54;20034;-80
2022/02/12 03:48:10;;;;;;;16.50;8.40;;;;;;;-0.98;83.09;101557.13;1087348;54;20046;-79
2022/02/12 03:49:11;;;;;;;18.48;9.23;;;;;;;-1.00;82.89;101558.91;1087439;54;20046;-79
2022/02/12 03:50:15;;;;;;;23.88;9.38;;;;;;;-1.02;83.04;101563.31;1087272;54;20034;-81
2022/02/12 03:51:18;;;;;;;57.20;11.63;;;;;;;-1.19;82.89;101556.69;1087413;54;20038;-80
2022/02/12 03:52:27;;;;;;;86.35;15.60;;;;;;;-1.32;83.34;101560.47;1087047;54;20061;-84
2022/02/12 03:53:32;;;;;;;100.13;15.10;;;;;;;-1.44;83.84;101551.06;1087557;54;20669;-81
2022/02/12 03:54:33;;;;;;;56.17;12.70;;;;;;;-1.48;84.01;101552.03;1088757;39;20820;-83
2022/02/12 03:55:40;;;;;;;24.23;11.00;;;;;;;-1.45;84.33;101544.97;1091298;39;20529;-81
2022/02/12 03:56:41;;;;;;;33.10;12.40;;;;;;;-1.49;84.28;101548.53;1087965;54;20041;-83
2022/02/12 03:57:48;;;;;;;62.78;14.02;;;;;;;-1.54;84.61;101555.66;1087910;54;20026;-82
2022/02/12 03:58:52;;;;;;;91.60;14.77;;;;;;;-1.59;84.95;101555.75;1088062;54;20038;-81
2022/02/12 03:59:54;;;;;;;42.10;12.88;;;;;;;-1.56;84.64;101552.19;1088044;54;20057;-83
2022/02/12 04:00:58;;;;;;;81.50;14.68;;;;;;;-1.61;84.76;101549.66;1088027;54;20034;-81
2022/02/12 04:02:01;;;;;;;96.03;16.58;;;;;;;-1.67;84.75;101543.66;1087259;54;20038;-82
2022/02/12 04:03:05;;;;;;;47.88;12.48;;;;;;;-1.68;85.21;101548.06;1087853;54;20026;-81
2022/02/12 04:04:07;;;;;;;22.52;12.20;;;;;;;-1.63;85.29;101545.34;1087965;54;20031;-81
2022/02/12 04:05:12;;;;;;;44.17;11.48;;;;;;;-1.59;85.06;101541.75;1087854;54;20034;-81
2022/02/12 04:06:14;;;;;;;34.45;12.07;;;;;;;-1.60;84.74;101545.25;1087811;54;20038;-82
2022/02/12 04:07:18;;;;;;;69.80;14.93;;;;;;;-1.62;84.98;101536.59;1087826;54;20098;-82
2022/02/12 04:08:21;;;;;;;20.98;10.60;;;;;;;-1.57;84.75;101534.72;1087714;54;20636;-82
2022/02/12 04:09:25;;;;;;;53.85;12.57;;;;;;;-1.64;84.74;101531.34;1087759;54;20053;-83
2022/02/12 04:10:28;;;;;;;23.67;11.32;;;;;;;-1.58;84.96;101530.38;1087813;54;20046;-82
2022/02/12 04:11:32;;;;;;;38.60;12.18;;;;;;;-1.57;85.01;101532.97;1088665;47;20035;-82
2022/02/12 04:12:33;;;;;;;35.85;12.25;;;;;;;-1.60;84.96;101537.38;1088021;54;20034;-83
2022/02/12 04:13:42;;;;;;;36.05;11.88;;;;;;;-1.55;84.84;101537.28;1088056;54;20030;-83
2022/02/12 04:14:43;;;;;;;22.20;9.85;;;;;;;-1.52;84.83;101538.13;1087984;54;20962;-82
2022/02/12 04:15:48;;;;;;;14.85;9.38;;;;;;;-1.46;84.57;101547.59;1088223;54;20019;-84
2022/02/12 04:16:49;;;;;;;16.40;9.27;;;;;;;-1.42;84.45;101541.41;1088176;54;20026;-84
2022/02/12 04:17:54;;;;;;;28.67;9.85;;;;;;;-1.38;84.22;101547.47;1088157;54;20034;-81
2022/02/12 04:18:55;;;;;;;33.92;10.60;;;;;;;-1.42;84.12;101534.41;1088175;54;20019;-83
2022/02/12 04:20:02;;;;;;;30.00;11.13;;;;;;;-1.48;84.15;101536.31;1088293;54;20034;-83
2022/02/12 04:21:06;;;;;;;23.38;11.13;;;;;;;-1.46;84.50;101535.38;1088238;54;20069;-82
2022/02/12 04:22:08;;;;;;;19.98;10.38;;;;;;;-1.43;84.63;101537.94;1088318;54;20765;-83
2022/02/12 04:23:13;;;;;;;24.75;11.32;;;;;;;-1.42;84.45;101533.53;1088434;54;20021;-85
2022/02/12 04:24:29;;;;;;;53.65;12.57;;;;;;;-1.49;84.53;101527.56;1088576;54;20023;-85
2022/02/12 04:25:33;;;;;;;20.00;10.10;;;;;;;-1.43;84.72;101522.19;1088551;54;20045;-82
2022/02/12 04:26:53;;;;;;;14.45;10.13;;;;;;;-1.40;84.56;101526.50;1089845;47;20470;-85
2022/02/12 04:27:54;;;;;;;21.52;11.05;;;;;;;-1.37;84.27;101529.06;1088418;54;20041;-82
2022/02/12 04:29:08;;;;;;;24.83;10.73;;;;;;;-1.33;84.26;101527.25;1088519;54;20014;-83
2022/02/12 04:30:11;;;;;;;29.27;10.73;;;;;;;-1.28;84.18;101525.38;1095731;47;20030;-83
2022/02/12 04:31:16;;;;;;;22.67;10.10;;;;;;;-1.29;84.04;101518.41;1088547;54;20019;-83
2022/02/12 04:32:20;;;;;;;46.05;13.70;;;;;;;-1.36;84.11;101514.19;1089412;47;20018;-82
2022/02/12 04:33:30;;;;;;;36.15;13.98;;;;;;;-1.36;84.37;101515.03;1088192;54;20038;-82
2022/02/12 04:34:31;;;;;;;36.47;13.45;;;;;;;-1.38;84.08;101509.00;1090331;47;20042;-83
2022/02/12 04:35:36;;;;;;;16.50;11.02;;;;;;;-1.35;84.29;101511.53;1088188;54;20115;-83
2022/02/12 04:36:40;;;;;;;28.67;12.43;;;;;;;-1.36;84.24;101507.16;1087901;54;20031;-83
2022/02/12 04:37:46;;;;;;;31.13;12.95;;;;;;;-1.37;84.30;101510.69;1087873;54;20038;-83
2022/02/12 04:38:48;;;;;;;42.90;13.73;;;;;;;-1.45;84.12;101510.00;1087809;54;20046;-84
2022/02/12 04:39:52;;;;;;;48.90;13.88;;;;;;;-1.52;84.46;101511.91;1088039;54;20095;-83
2022/02/12 04:40:54;;;;;;;100.13;15.50;;;;;;;-1.58;84.73;101510.25;1088064;54;20019;-83
2022/02/12 04:41:58;;;;;;;26.70;13.60;;;;;;;-1.51;84.99;101503.09;1088192;54;20019;-83
2022/02/12 04:43:01;;;;;;;53.22;14.10;;;;;;;-1.50;85.04;101503.97;1088294;54;20039;-83
2022/02/12 04:44:08;;;;;;;17.50;10.48;;;;;;;-1.42;84.91;101505.53;1092412;47;20026;-82
2022/02/12 04:45:10;;;;;;;41.92;13.10;;;;;;;-1.44;85.03;101498.59;1088166;54;20046;-84
2022/02/12 04:46:14;;;;;;;81.97;16.73;;;;;;;-1.54;85.02;101503.19;1090881;47;20030;-83
2022/02/12 04:47:16;;;;;;;122.60;17.25;;;;;;;-1.63;85.35;101503.38;1088210;47;20027;-82
2022/02/12 04:48:21;;;;;;;133.10;17.67;;;;;;;-1.67;85.67;101501.69;1088047;54;20031;-84
2022/02/12 04:49:24;;;;;;;46.15;13.57;;;;;;;-1.67;85.86;101506.94;1087983;54;20041;-82
2022/02/12 04:50:29;;;;;;;19.55;11.40;;;;;;;-1.57;85.78;101505.88;1091417;31;20750;-82
2022/02/12 04:51:32;;;;;;;32.45;12.63;;;;;;;-1.54;85.77;101499.69;1088040;54;20019;-82
2022/02/12 04:52:36;;;;;;;22.45;11.57;;;;;;;-1.48;85.35;101492.56;1088028;54;20115;-81
2022/02/12 04:53:38;;;;;;;20.45;11.38;;;;;;;-1.45;85.50;101487.25;1087899;54;20038;-82
2022/02/12 04:54:42;;;;;;;20.77;11.60;;;;;;;-1.42;85.43;101481.06;1087799;54;20662;-84
2022/02/12 04:55:45;;;;;;;16.73;10.35;;;;;;;-1.34;84.99;101488.78;1087310;54;20549;-79
2022/02/12 04:56:49;;;;;;;27.52;10.98;;;;;;;-1.36;85.08;101490.56;1086659;39;20441;-78